sensor_id;sensor_type;location;lat;lon;timestamp;P1;durP1;ratioP1;P2;durP2;ratioP2
48627;SDS011;34424;52.234;6.500;2022-12-16T00:03:46;57.95;;;33.42;;
48627;SDS011;34424;52.234;6.500;2022-12-16T00:08:48;61.63;;;33.03;;
48627;SDS011;34424;52.234;6.500;2022-12-16T00:13:53;58.17;;;32.80;;
48627;SDS011;34424;52.234;6.500;2022-12-16T00:18:56;58.80;;;32.92;;
48627;SDS011;34424;52.234;6.500;2022-12-16T00:23:58;60.28;;;34.53;;
48627;SDS011;34424;52.234;6.500;2022-12-16T00:29:02;63.15;;;34.85;;
48627;SDS011;34424;52.234;6.500;2022-12-16T00:34:05;55.47;;;32.08;;
48627;SDS011;34424;52.234;6.500;2022-12-16T00:39:08;60.17;;;31.77;;
48627;SDS011;34424;52.234;6.500;2022-12-16T00:44:12;65.13;;;34.53;;
48627;SDS011;34424;52.234;6.500;2022-12-16T00:49:15;59.30;;;32.90;;
48627;SDS011;34424;52.234;6.500;2022-12-16T00:54:17;60.92;;;35.30;;
48627;SDS011;34424;52.234;6.500;2022-12-16T00:59:21;60.10;;;33.60;;
48627;SDS011;34424;52.234;6.500;2022-12-16T01:04:23;60.65;;;35.00;;
48627;SDS011;34424;52.234;6.500;2022-12-16T01:09:26;60.75;;;34.38;;
48627;SDS011;34424;52.234;6.500;2022-12-16T01:14:30;57.25;;;30.58;;
48627;SDS011;34424;52.234;6.500;2022-12-16T01:19:33;58.85;;;33.60;;
48627;SDS011;34424;52.234;6.500;2022-12-16T01:24:35;59.35;;;33.25;;
48627;SDS011;34424;52.234;6.500;2022-12-16T01:29:39;52.95;;;30.85;;
48627;SDS011;34424;52.234;6.500;2022-12-16T01:34:42;55.05;;;32.67;;
48627;SDS011;34424;52.234;6.500;2022-12-16T01:39:51;57.20;;;33.10;;
48627;SDS011;34424;52.234;6.500;2022-12-16T01:44:55;55.47;;;33.33;;
48627;SDS011;34424;52.234;6.500;2022-12-16T01:49:58;57.78;;;33.38;;
48627;SDS011;34424;52.234;6.500;2022-12-16T01:55:04;60.22;;;33.25;;
48627;SDS011;34424;52.234;6.500;2022-12-16T02:00:11;55.03;;;31.88;;
48627;SDS011;34424;52.234;6.500;2022-12-16T02:05:14;58.03;;;34.63;;
48627;SDS011;34424;52.234;6.500;2022-12-16T02:10:24;55.42;;;33.60;;
48627;SDS011;34424;52.234;6.500;2022-12-16T02:15:33;54.75;;;33.42;;
48627;SDS011;34424;52.234;6.500;2022-12-16T02:20:46;55.63;;;32.55;;
48627;SDS011;34424;52.234;6.500;2022-12-16T02:25:59;54.30;;;31.90;;
48627;SDS011;34424;52.234;6.500;2022-12-16T02:31:17;58.20;;;35.35;;
48627;SDS011;34424;52.234;6.500;2022-12-16T02:36:23;62.70;;;34.65;;
48627;SDS011;34424;52.234;6.500;2022-12-16T02:41:30;56.42;;;34.03;;
48627;SDS011;34424;52.234;6.500;2022-12-16T02:46:39;59.78;;;35.42;;
48627;SDS011;34424;52.234;6.500;2022-12-16T02:51:42;62.28;;;35.92;;
48627;SDS011;34424;52.234;6.500;2022-12-16T02:56:47;58.80;;;35.00;;
48627;SDS011;34424;52.234;6.500;2022-12-16T03:01:53;67.80;;;35.45;;
48627;SDS011;34424;52.234;6.500;2022-12-16T03:06:57;60.90;;;34.63;;
48627;SDS011;34424;52.234;6.500;2022-12-16T03:12:02;65.22;;;36.10;;
48627;SDS011;34424;52.234;6.500;2022-12-16T03:17:07;62.60;;;35.97;;
48627;SDS011;34424;52.234;6.500;2022-12-16T03:22:11;62.80;;;36.53;;
48627;SDS011;34424;52.234;6.500;2022-12-16T03:27:15;61.75;;;35.50;;
48627;SDS011;34424;52.234;6.500;2022-12-16T03:32:20;62.53;;;36.17;;
48627;SDS011;34424;52.234;6.500;2022-12-16T03:37:26;66.50;;;38.70;;
48627;SDS011;34424;52.234;6.500;2022-12-16T03:42:28;65.75;;;39.63;;
48627;SDS011;34424;52.234;6.500;2022-12-16T03:47:33;66.40;;;37.50;;
48627;SDS011;34424;52.234;6.500;2022-12-16T03:52:35;65.13;;;40.00;;
48627;SDS011;34424;52.234;6.500;2022-12-16T03:57:38;67.75;;;38.70;;
48627;SDS011;34424;52.234;6.500;2022-12-16T04:02:41;67.75;;;38.42;;
48627;SDS011;34424;52.234;6.500;2022-12-16T04:07:44;70.80;;;40.10;;
48627;SDS011;34424;52.234;6.500;2022-12-16T04:12:47;61.90;;;39.47;;
48627;SDS011;34424;52.234;6.500;2022-12-16T04:18:08;63.63;;;37.40;;
48627;SDS011;34424;52.234;6.500;2022-12-16T04:23:31;77.85;;;40.85;;
48627;SDS011;34424;52.234;6.500;2022-12-16T04:28:53;70.32;;;39.72;;
48627;SDS011;34424;52.234;6.500;2022-12-16T04:33:57;69.70;;;39.72;;
48627;SDS011;34424;52.234;6.500;2022-12-16T04:39:17;66.13;;;38.70;;
48627;SDS011;34424;52.234;6.500;2022-12-16T04:44:36;64.75;;;39.50;;
48627;SDS011;34424;52.234;6.500;2022-12-16T04:49:58;69.85;;;38.10;;
48627;SDS011;34424;52.234;6.500;2022-12-16T04:55:18;61.20;;;38.38;;
48627;SDS011;34424;52.234;6.500;2022-12-16T05:00:38;69.97;;;38.63;;
48627;SDS011;34424;52.234;6.500;2022-12-16T05:05:59;68.40;;;37.97;;
48627;SDS011;34424;52.234;6.500;2022-12-16T05:11:19;68.13;;;39.38;;
48627;SDS011;34424;52.234;6.500;2022-12-16T05:16:39;66.55;;;39.08;;
48627;SDS011;34424;52.234;6.500;2022-12-16T05:22:00;68.63;;;40.25;;
48627;SDS011;34424;52.234;6.500;2022-12-16T05:27:20;61.20;;;39.60;;
48627;SDS011;34424;52.234;6.500;2022-12-16T05:32:40;69.00;;;40.88;;
48627;SDS011;34424;52.234;6.500;2022-12-16T05:38:01;73.78;;;40.92;;
48627;SDS011;34424;52.234;6.500;2022-12-16T05:43:21;75.68;;;42.17;;
48627;SDS011;34424;52.234;6.500;2022-12-16T05:48:41;72.22;;;41.35;;
48627;SDS011;34424;52.234;6.500;2022-12-16T05:54:03;73.47;;;44.08;;
48627;SDS011;34424;52.234;6.500;2022-12-16T05:59:22;76.53;;;42.58;;
48627;SDS011;34424;52.234;6.500;2022-12-16T06:04:43;79.82;;;41.15;;
48627;SDS011;34424;52.234;6.500;2022-12-16T06:10:04;73.63;;;41.13;;
48627;SDS011;34424;52.234;6.500;2022-12-16T06:15:25;72.25;;;41.15;;
48627;SDS011;34424;52.234;6.500;2022-12-16T06:20:44;74.70;;;41.58;;
48627;SDS011;34424;52.234;6.500;2022-12-16T06:26:03;74.20;;;41.42;;
48627;SDS011;34424;52.234;6.500;2022-12-16T06:31:23;69.00;;;40.33;;
48627;SDS011;34424;52.234;6.500;2022-12-16T06:36:43;71.97;;;41.38;;
48627;SDS011;34424;52.234;6.500;2022-12-16T06:42:05;78.25;;;41.70;;
48627;SDS011;34424;52.234;6.500;2022-12-16T06:47:25;76.65;;;42.17;;
48627;SDS011;34424;52.234;6.500;2022-12-16T06:52:45;85.72;;;48.47;;
48627;SDS011;34424;52.234;6.500;2022-12-16T06:58:07;72.13;;;41.15;;
48627;SDS011;34424;52.234;6.500;2022-12-16T07:03:26;78.10;;;40.85;;
48627;SDS011;34424;52.234;6.500;2022-12-16T07:08:47;82.93;;;44.40;;
48627;SDS011;34424;52.234;6.500;2022-12-16T07:14:08;80.57;;;40.03;;
48627;SDS011;34424;52.234;6.500;2022-12-16T07:19:28;94.07;;;46.38;;
48627;SDS011;34424;52.234;6.500;2022-12-16T07:24:47;91.80;;;45.60;;
48627;SDS011;34424;52.234;6.500;2022-12-16T07:30:09;92.45;;;47.97;;
48627;SDS011;34424;52.234;6.500;2022-12-16T07:35:29;103.53;;;52.75;;
48627;SDS011;34424;52.234;6.500;2022-12-16T07:40:49;94.65;;;47.28;;
48627;SDS011;34424;52.234;6.500;2022-12-16T07:46:10;94.28;;;47.05;;
48627;SDS011;34424;52.234;6.500;2022-12-16T07:51:30;101.85;;;48.60;;
48627;SDS011;34424;52.234;6.500;2022-12-16T07:56:51;95.82;;;51.45;;
48627;SDS011;34424;52.234;6.500;2022-12-16T08:02:12;90.88;;;52.28;;
48627;SDS011;34424;52.234;6.500;2022-12-16T08:07:32;107.00;;;54.55;;
48627;SDS011;34424;52.234;6.500;2022-12-16T08:12:58;127.40;;;52.85;;
48627;SDS011;34424;52.234;6.500;2022-12-16T08:18:27;97.00;;;48.22;;
48627;SDS011;34424;52.234;6.500;2022-12-16T08:23:46;97.85;;;49.70;;
48627;SDS011;34424;52.234;6.500;2022-12-16T08:29:06;89.05;;;49.15;;
48627;SDS011;34424;52.234;6.500;2022-12-16T08:34:46;93.80;;;51.13;;
48627;SDS011;34424;52.234;6.500;2022-12-16T08:40:06;88.20;;;49.55;;
48627;SDS011;34424;52.234;6.500;2022-12-16T08:45:36;88.22;;;48.28;;
48627;SDS011;34424;52.234;6.500;2022-12-16T08:50:59;82.05;;;46.25;;
48627;SDS011;34424;52.234;6.500;2022-12-16T08:56:19;109.40;;;52.83;;
48627;SDS011;34424;52.234;6.500;2022-12-16T09:01:39;101.47;;;51.88;;
48627;SDS011;34424;52.234;6.500;2022-12-16T09:07:00;100.57;;;52.42;;
48627;SDS011;34424;52.234;6.500;2022-12-16T09:12:20;96.70;;;51.88;;
48627;SDS011;34424;52.234;6.500;2022-12-16T09:17:40;105.55;;;52.65;;
48627;SDS011;34424;52.234;6.500;2022-12-16T09:23:02;99.45;;;51.58;;
48627;SDS011;34424;52.234;6.500;2022-12-16T09:28:22;102.90;;;51.65;;
48627;SDS011;34424;52.234;6.500;2022-12-16T09:33:42;92.28;;;49.25;;
48627;SDS011;34424;52.234;6.500;2022-12-16T09:39:03;88.47;;;49.00;;
48627;SDS011;34424;52.234;6.500;2022-12-16T09:44:25;91.80;;;49.28;;
48627;SDS011;34424;52.234;6.500;2022-12-16T09:49:55;83.05;;;47.95;;
48627;SDS011;34424;52.234;6.500;2022-12-16T09:55:19;84.85;;;47.55;;
48627;SDS011;34424;52.234;6.500;2022-12-16T10:00:41;87.47;;;47.40;;
48627;SDS011;34424;52.234;6.500;2022-12-16T10:06:02;96.40;;;49.45;;
48627;SDS011;34424;52.234;6.500;2022-12-16T10:11:35;73.30;;;43.90;;
48627;SDS011;34424;52.234;6.500;2022-12-16T10:17:00;89.15;;;45.28;;
48627;SDS011;34424;52.234;6.500;2022-12-16T10:22:24;68.45;;;39.53;;
48627;SDS011;34424;52.234;6.500;2022-12-16T10:27:48;73.05;;;44.33;;
48627;SDS011;34424;52.234;6.500;2022-12-16T10:33:09;69.78;;;41.53;;
48627;SDS011;34424;52.234;6.500;2022-12-16T10:38:42;75.07;;;44.03;;
48627;SDS011;34424;52.234;6.500;2022-12-16T10:44:05;68.18;;;41.67;;
48627;SDS011;34424;52.234;6.500;2022-12-16T10:49:30;67.60;;;41.45;;
48627;SDS011;34424;52.234;6.500;2022-12-16T10:54:57;69.57;;;42.08;;
48627;SDS011;34424;52.234;6.500;2022-12-16T11:00:36;62.67;;;40.60;;
48627;SDS011;34424;52.234;6.500;2022-12-16T11:05:57;67.55;;;41.47;;
48627;SDS011;34424;52.234;6.500;2022-12-16T11:11:19;66.78;;;39.75;;
48627;SDS011;34424;52.234;6.500;2022-12-16T11:16:41;65.80;;;41.35;;
48627;SDS011;34424;52.234;6.500;2022-12-16T11:22:04;64.07;;;41.28;;
48627;SDS011;34424;52.234;6.500;2022-12-16T11:27:25;64.90;;;40.60;;
48627;SDS011;34424;52.234;6.500;2022-12-16T11:32:47;67.72;;;40.25;;
48627;SDS011;34424;52.234;6.500;2022-12-16T11:38:09;62.58;;;40.78;;
48627;SDS011;34424;52.234;6.500;2022-12-16T11:43:32;64.10;;;41.65;;
48627;SDS011;34424;52.234;6.500;2022-12-16T11:48:53;77.18;;;49.30;;
48627;SDS011;34424;52.234;6.500;2022-12-16T11:54:24;68.88;;;44.78;;
48627;SDS011;34424;52.234;6.500;2022-12-16T11:59:46;71.68;;;42.95;;
48627;SDS011;34424;52.234;6.500;2022-12-16T12:16:11;69.80;;;43.33;;
48627;SDS011;34424;52.234;6.500;2022-12-16T12:21:34;89.57;;;49.47;;
48627;SDS011;34424;52.234;6.500;2022-12-16T12:27:01;83.75;;;47.85;;
48627;SDS011;34424;52.234;6.500;2022-12-16T12:32:25;92.20;;;49.42;;
48627;SDS011;34424;52.234;6.500;2022-12-16T12:37:47;93.90;;;48.92;;
48627;SDS011;34424;52.234;6.500;2022-12-16T12:43:15;105.03;;;53.58;;
48627;SDS011;34424;52.234;6.500;2022-12-16T12:48:45;110.85;;;55.97;;
48627;SDS011;34424;52.234;6.500;2022-12-16T12:54:09;128.73;;;60.53;;
48627;SDS011;34424;52.234;6.500;2022-12-16T12:59:49;121.72;;;59.28;;
48627;SDS011;34424;52.234;6.500;2022-12-16T13:10:34;142.07;;;60.35;;
48627;SDS011;34424;52.234;6.500;2022-12-16T13:15:55;143.30;;;58.45;;
48627;SDS011;34424;52.234;6.500;2022-12-16T13:27:00;163.98;;;66.10;;
48627;SDS011;34424;52.234;6.500;2022-12-16T13:32:23;145.10;;;67.68;;
48627;SDS011;34424;52.234;6.500;2022-12-16T13:37:49;156.75;;;69.00;;
48627;SDS011;34424;52.234;6.500;2022-12-16T13:43:17;149.68;;;66.38;;
48627;SDS011;34424;52.234;6.500;2022-12-16T13:48:58;167.93;;;70.65;;
48627;SDS011;34424;52.234;6.500;2022-12-16T13:54:40;159.70;;;72.35;;
48627;SDS011;34424;52.234;6.500;2022-12-16T14:00:02;169.52;;;69.95;;
48627;SDS011;34424;52.234;6.500;2022-12-16T14:05:41;165.18;;;67.05;;
48627;SDS011;34424;52.234;6.500;2022-12-16T14:11:02;128.77;;;62.42;;
48627;SDS011;34424;52.234;6.500;2022-12-16T14:16:29;136.95;;;67.40;;
48627;SDS011;34424;52.234;6.500;2022-12-16T14:21:55;195.05;;;68.68;;
48627;SDS011;34424;52.234;6.500;2022-12-16T14:27:18;158.75;;;77.78;;
48627;SDS011;34424;52.234;6.500;2022-12-16T14:32:39;182.05;;;79.22;;
48627;SDS011;34424;52.234;6.500;2022-12-16T14:38:13;179.93;;;67.28;;
48627;SDS011;34424;52.234;6.500;2022-12-16T14:43:39;150.40;;;68.75;;
48627;SDS011;34424;52.234;6.500;2022-12-16T14:49:01;158.57;;;71.65;;
48627;SDS011;34424;52.234;6.500;2022-12-16T14:54:23;181.55;;;81.32;;
48627;SDS011;34424;52.234;6.500;2022-12-16T14:59:44;177.07;;;77.93;;
48627;SDS011;34424;52.234;6.500;2022-12-16T15:05:05;170.63;;;79.38;;
48627;SDS011;34424;52.234;6.500;2022-12-16T15:10:26;192.82;;;83.88;;
48627;SDS011;34424;52.234;6.500;2022-12-16T15:15:47;209.05;;;86.45;;
48627;SDS011;34424;52.234;6.500;2022-12-16T15:21:07;187.15;;;82.78;;
48627;SDS011;34424;52.234;6.500;2022-12-16T15:26:29;186.45;;;82.38;;
48627;SDS011;34424;52.234;6.500;2022-12-16T15:31:50;192.65;;;80.88;;
48627;SDS011;34424;52.234;6.500;2022-12-16T15:37:17;172.95;;;78.38;;
48627;SDS011;34424;52.234;6.500;2022-12-16T15:42:39;177.65;;;80.78;;
48627;SDS011;34424;52.234;6.500;2022-12-16T15:47:59;160.88;;;74.13;;
48627;SDS011;34424;52.234;6.500;2022-12-16T15:53:27;120.55;;;53.97;;
48627;SDS011;34424;52.234;6.500;2022-12-16T15:58:49;109.10;;;52.10;;
48627;SDS011;34424;52.234;6.500;2022-12-16T16:04:14;108.88;;;50.60;;
48627;SDS011;34424;52.234;6.500;2022-12-16T16:09:37;104.53;;;53.92;;
48627;SDS011;34424;52.234;6.500;2022-12-16T16:14:59;106.88;;;53.90;;
48627;SDS011;34424;52.234;6.500;2022-12-16T16:20:19;106.47;;;50.58;;
48627;SDS011;34424;52.234;6.500;2022-12-16T16:25:39;107.35;;;50.20;;
48627;SDS011;34424;52.234;6.500;2022-12-16T16:31:06;105.80;;;49.67;;
48627;SDS011;34424;52.234;6.500;2022-12-16T16:36:27;103.72;;;52.00;;
48627;SDS011;34424;52.234;6.500;2022-12-16T16:41:47;97.55;;;48.00;;
48627;SDS011;34424;52.234;6.500;2022-12-16T16:47:09;104.47;;;48.25;;
48627;SDS011;34424;52.234;6.500;2022-12-16T16:52:33;102.68;;;55.92;;
48627;SDS011;34424;52.234;6.500;2022-12-16T16:57:53;101.43;;;47.40;;
48627;SDS011;34424;52.234;6.500;2022-12-16T17:03:14;94.07;;;46.55;;
48627;SDS011;34424;52.234;6.500;2022-12-16T17:08:35;110.38;;;54.58;;
48627;SDS011;34424;52.234;6.500;2022-12-16T17:13:55;89.50;;;45.40;;
48627;SDS011;34424;52.234;6.500;2022-12-16T17:19:16;91.57;;;46.78;;
48627;SDS011;34424;52.234;6.500;2022-12-16T17:24:36;87.63;;;44.95;;
48627;SDS011;34424;52.234;6.500;2022-12-16T17:29:56;89.30;;;44.58;;
48627;SDS011;34424;52.234;6.500;2022-12-16T17:35:17;94.63;;;45.00;;
48627;SDS011;34424;52.234;6.500;2022-12-16T17:40:37;85.75;;;45.83;;
48627;SDS011;34424;52.234;6.500;2022-12-16T17:45:57;82.40;;;45.13;;
48627;SDS011;34424;52.234;6.500;2022-12-16T17:51:19;88.05;;;47.17;;
48627;SDS011;34424;52.234;6.500;2022-12-16T17:56:39;87.32;;;44.17;;
48627;SDS011;34424;52.234;6.500;2022-12-16T18:01:59;100.82;;;49.40;;
48627;SDS011;34424;52.234;6.500;2022-12-16T18:07:20;77.97;;;38.55;;
48627;SDS011;34424;52.234;6.500;2022-12-16T18:12:40;69.50;;;38.80;;
48627;SDS011;34424;52.234;6.500;2022-12-16T18:18:00;71.78;;;40.50;;
48627;SDS011;34424;52.234;6.500;2022-12-16T18:23:21;62.80;;;35.17;;
48627;SDS011;34424;52.234;6.500;2022-12-16T18:28:41;61.40;;;35.83;;
48627;SDS011;34424;52.234;6.500;2022-12-16T18:34:01;69.45;;;36.72;;
48627;SDS011;34424;52.234;6.500;2022-12-16T18:39:22;62.60;;;33.63;;
48627;SDS011;34424;52.234;6.500;2022-12-16T18:44:44;66.70;;;39.60;;
48627;SDS011;34424;52.234;6.500;2022-12-16T18:50:04;65.45;;;36.70;;
48627;SDS011;34424;52.234;6.500;2022-12-16T18:55:33;72.82;;;39.05;;
48627;SDS011;34424;52.234;6.500;2022-12-16T19:00:58;73.63;;;38.28;;
48627;SDS011;34424;52.234;6.500;2022-12-16T19:06:18;73.78;;;39.90;;
48627;SDS011;34424;52.234;6.500;2022-12-16T19:11:39;74.22;;;39.72;;
48627;SDS011;34424;52.234;6.500;2022-12-16T19:16:59;75.43;;;39.83;;
48627;SDS011;34424;52.234;6.500;2022-12-16T19:22:19;74.55;;;39.88;;
48627;SDS011;34424;52.234;6.500;2022-12-16T19:27:40;75.18;;;38.47;;
48627;SDS011;34424;52.234;6.500;2022-12-16T19:33:00;71.32;;;37.42;;
48627;SDS011;34424;52.234;6.500;2022-12-16T19:38:20;77.82;;;37.63;;
48627;SDS011;34424;52.234;6.500;2022-12-16T19:43:42;75.10;;;40.03;;
48627;SDS011;34424;52.234;6.500;2022-12-16T19:49:23;83.97;;;42.95;;
48627;SDS011;34424;52.234;6.500;2022-12-16T19:55:03;85.45;;;41.40;;
48627;SDS011;34424;52.234;6.500;2022-12-16T20:00:25;85.70;;;44.05;;
48627;SDS011;34424;52.234;6.500;2022-12-16T20:05:45;82.72;;;41.20;;
48627;SDS011;34424;52.234;6.500;2022-12-16T20:11:05;82.47;;;42.25;;
48627;SDS011;34424;52.234;6.500;2022-12-16T20:16:27;81.35;;;39.80;;
48627;SDS011;34424;52.234;6.500;2022-12-16T20:21:47;80.68;;;40.47;;
48627;SDS011;34424;52.234;6.500;2022-12-16T20:27:27;88.25;;;41.13;;
48627;SDS011;34424;52.234;6.500;2022-12-16T20:32:48;88.03;;;41.80;;
48627;SDS011;34424;52.234;6.500;2022-12-16T20:38:08;112.93;;;50.00;;
48627;SDS011;34424;52.234;6.500;2022-12-16T20:43:28;134.43;;;54.42;;
48627;SDS011;34424;52.234;6.500;2022-12-16T20:48:49;145.63;;;57.75;;
48627;SDS011;34424;52.234;6.500;2022-12-16T20:54:09;161.98;;;62.70;;
48627;SDS011;34424;52.234;6.500;2022-12-16T20:59:30;168.18;;;68.05;;
48627;SDS011;34424;52.234;6.500;2022-12-16T21:05:00;182.45;;;74.35;;
48627;SDS011;34424;52.234;6.500;2022-12-16T21:10:20;179.32;;;71.00;;
48627;SDS011;34424;52.234;6.500;2022-12-16T21:15:40;188.55;;;71.85;;
48627;SDS011;34424;52.234;6.500;2022-12-16T21:21:01;199.93;;;71.38;;
48627;SDS011;34424;52.234;6.500;2022-12-16T21:26:21;192.00;;;67.32;;
48627;SDS011;34424;52.234;6.500;2022-12-16T21:31:41;189.43;;;68.25;;
48627;SDS011;34424;52.234;6.500;2022-12-16T21:37:02;174.02;;;66.05;;
48627;SDS011;34424;52.234;6.500;2022-12-16T21:42:22;175.18;;;67.60;;
48627;SDS011;34424;52.234;6.500;2022-12-16T21:47:44;167.90;;;63.70;;
48627;SDS011;34424;52.234;6.500;2022-12-16T21:53:06;163.73;;;59.90;;
48627;SDS011;34424;52.234;6.500;2022-12-16T21:58:26;158.93;;;57.17;;
48627;SDS011;34424;52.234;6.500;2022-12-16T22:03:46;151.38;;;61.42;;
48627;SDS011;34424;52.234;6.500;2022-12-16T22:09:07;143.77;;;57.55;;
48627;SDS011;34424;52.234;6.500;2022-12-16T22:14:27;134.90;;;56.58;;
48627;SDS011;34424;52.234;6.500;2022-12-16T22:19:47;148.68;;;56.55;;
48627;SDS011;34424;52.234;6.500;2022-12-16T22:25:08;127.88;;;54.65;;
48627;SDS011;34424;52.234;6.500;2022-12-16T22:30:28;149.43;;;58.15;;
48627;SDS011;34424;52.234;6.500;2022-12-16T22:35:48;146.10;;;58.20;;
48627;SDS011;34424;52.234;6.500;2022-12-16T22:41:11;147.45;;;56.35;;
48627;SDS011;34424;52.234;6.500;2022-12-16T22:46:31;157.70;;;58.33;;
48627;SDS011;34424;52.234;6.500;2022-12-16T22:51:51;163.18;;;61.40;;
48627;SDS011;34424;52.234;6.500;2022-12-16T22:57:13;159.57;;;57.30;;
48627;SDS011;34424;52.234;6.500;2022-12-16T23:02:33;184.07;;;63.95;;
48627;SDS011;34424;52.234;6.500;2022-12-16T23:07:54;157.73;;;60.60;;
48627;SDS011;34424;52.234;6.500;2022-12-16T23:13:15;166.98;;;59.30;;
48627;SDS011;34424;52.234;6.500;2022-12-16T23:18:34;155.45;;;56.78;;
48627;SDS011;34424;52.234;6.500;2022-12-16T23:23:56;163.43;;;60.38;;
48627;SDS011;34424;52.234;6.500;2022-12-16T23:29:18;165.70;;;56.85;;
48627;SDS011;34424;52.234;6.500;2022-12-16T23:34:39;190.93;;;64.88;;
48627;SDS011;34424;52.234;6.500;2022-12-16T23:39:59;141.95;;;54.38;;
48627;SDS011;34424;52.234;6.500;2022-12-16T23:45:21;166.88;;;59.35;;
48627;SDS011;34424;52.234;6.500;2022-12-16T23:50:40;155.88;;;58.35;;
48627;SDS011;34424;52.234;6.500;2022-12-16T23:56:00;136.45;;;53.00;;
